4XHLK LLHA-LLIB
Flight info
| Callsign | 4XHLK |
|---|---|
| Flight time | 0h 26m |
| Altitude | 800 |
| Route | VFR |
| Aircraft | TL20/L-S/C |
Departure
| Time | 2026-04-24 12:19 |
|---|---|
| Airport | Uri Michaeli Haifa International Airport (LLHA) |
Arrival
| Time | 2026-04-24 12:45 |
|---|---|
| Airport | Rosh Pina Airport (LLIB) |
| Time | Latitude | Longitude | Altitude | Speed | Heading |
|---|---|---|---|---|---|
| 2026-04-24 12:12 | 32.81128 | 35.04203 | 20 ft | 0 kts | 340° |
| 2026-04-24 12:16 | 32.81129 | 35.04203 | 20 ft | 3 kts | 340° |
| 2026-04-24 12:16 | 32.81155 | 35.04230 | 21 ft | 5 kts | 78° |
| 2026-04-24 12:16 | 32.81163 | 35.04292 | 22 ft | 9 kts | 123° |
| 2026-04-24 12:16 | 32.81111 | 35.04349 | 21 ft | 13 kts | 172° |
| 2026-04-24 12:17 | 32.80882 | 35.04424 | 22 ft | 42 kts | 160° |
| 2026-04-24 12:17 | 32.80649 | 35.04526 | 20 ft | 28 kts | 165° |
| 2026-04-24 12:17 | 32.80614 | 35.04551 | 19 ft | 0 kts | 338° |
| 2026-04-24 12:17 | 32.80622 | 35.04547 | 20 ft | 3 kts | 339° |
| 2026-04-24 12:18 | 32.80754 | 35.04487 | 20 ft | 57 kts | 339° |
| 2026-04-24 12:18 | 32.81192 | 35.04289 | 152 ft | 85 kts | 340° |
| 2026-04-24 12:18 | 32.81770 | 35.04037 | 221 ft | 86 kts | 339° |
| 2026-04-24 12:18 | 32.82304 | 35.03796 | 434 ft | 87 kts | 342° |
| 2026-04-24 12:19 | 32.82886 | 35.03878 | 517 ft | 95 kts | 37° |
| 2026-04-24 12:19 | 32.83293 | 35.04541 | 556 ft | 103 kts | 46° |
| 2026-04-24 12:19 | 32.83234 | 35.05361 | 690 ft | 125 kts | 130° |
| 2026-04-24 12:19 | 32.82504 | 35.05947 | 774 ft | 128 kts | 151° |
| 2026-04-24 12:20 | 32.81719 | 35.06444 | 843 ft | 127 kts | 153° |
| 2026-04-24 12:20 | 32.80935 | 35.06935 | 896 ft | 128 kts | 149° |
| 2026-04-24 12:20 | 32.80452 | 35.07765 | 965 ft | 122 kts | 92° |
| 2026-04-24 12:20 | 32.80534 | 35.08684 | 1097 ft | 103 kts | 63° |
| 2026-04-24 12:21 | 32.80964 | 35.09366 | 1048 ft | 107 kts | 41° |
| 2026-04-24 12:21 | 32.81447 | 35.10033 | 1161 ft | 106 kts | 39° |
| 2026-04-24 12:21 | 32.81916 | 35.10714 | 1246 ft | 107 kts | 42° |
| 2026-04-24 12:21 | 32.82128 | 35.11571 | 1274 ft | 115 kts | 84° |
| 2026-04-24 12:22 | 32.82122 | 35.12518 | 1316 ft | 115 kts | 88° |
| 2026-04-24 12:22 | 32.82045 | 35.13454 | 1406 ft | 117 kts | 96° |
| 2026-04-24 12:22 | 32.81819 | 35.14400 | 1331 ft | 117 kts | 97° |
| 2026-04-24 12:22 | 32.81796 | 35.15300 | 1346 ft | 106 kts | 55° |
| 2026-04-24 12:23 | 32.82066 | 35.16110 | 1406 ft | 106 kts | 75° |
| 2026-04-24 12:23 | 32.82093 | 35.16966 | 1423 ft | 105 kts | 88° |
| 2026-04-24 12:23 | 32.82128 | 35.17860 | 1413 ft | 112 kts | 86° |
| 2026-04-24 12:23 | 32.82170 | 35.18785 | 1420 ft | 112 kts | 86° |
| 2026-04-24 12:24 | 32.82257 | 35.19706 | 1519 ft | 112 kts | 68° |
| 2026-04-24 12:24 | 32.82533 | 35.20576 | 1621 ft | 112 kts | 81° |
| 2026-04-24 12:24 | 32.82606 | 35.21463 | 1912 ft | 106 kts | 87° |
| 2026-04-24 12:24 | 32.82750 | 35.22369 | 1873 ft | 122 kts | 72° |
| 2026-04-24 12:25 | 32.82889 | 35.23314 | 1958 ft | 101 kts | 82° |
| 2026-04-24 12:25 | 32.82981 | 35.24158 | 1971 ft | 112 kts | 75° |
| 2026-04-24 12:25 | 32.83259 | 35.25008 | 2125 ft | 110 kts | 65° |
| 2026-04-24 12:25 | 32.83646 | 35.25841 | 2118 ft | 118 kts | 57° |
| 2026-04-24 12:26 | 32.83893 | 35.26696 | 2318 ft | 103 kts | 82° |
| 2026-04-24 12:26 | 32.83955 | 35.27522 | 2401 ft | 98 kts | 85° |
| 2026-04-24 12:26 | 32.83992 | 35.28378 | 2266 ft | 108 kts | 82° |
| 2026-04-24 12:26 | 32.84171 | 35.29325 | 1958 ft | 133 kts | 74° |
| 2026-04-24 12:27 | 32.84266 | 35.30347 | 1640 ft | 107 kts | 87° |
| 2026-04-24 12:27 | 32.84366 | 35.31166 | 1348 ft | 99 kts | 75° |
| 2026-04-24 12:27 | 32.84468 | 35.32022 | 1154 ft | 116 kts | 86° |
| 2026-04-24 12:27 | 32.84548 | 35.33005 | 1174 ft | 121 kts | 79° |
| 2026-04-24 12:28 | 32.84706 | 35.33939 | 1357 ft | 115 kts | 68° |
| 2026-04-24 12:28 | 32.85350 | 35.34333 | 1515 ft | 111 kts | 342° |
| 2026-04-24 12:28 | 32.85572 | 35.33533 | 1591 ft | 114 kts | 267° |
| 2026-04-24 12:28 | 32.85924 | 35.33011 | 1849 ft | 109 kts | 43° |
| 2026-04-24 12:29 | 32.86135 | 35.33917 | 1928 ft | 116 kts | 80° |
| 2026-04-24 12:29 | 32.86742 | 35.34076 | 1422 ft | 125 kts | 308° |
| 2026-04-24 12:29 | 32.86653 | 35.33225 | 1196 ft | 88 kts | 266° |
| 2026-04-24 12:29 | 32.86652 | 35.32375 | 1116 ft | 112 kts | 271° |
| 2026-04-24 12:30 | 32.86592 | 35.31485 | 1412 ft | 90 kts | 260° |
| 2026-04-24 12:30 | 32.86528 | 35.31246 | 1439 ft | 5 kts | 342° |
| 2026-04-24 12:30 | 32.85901 | 35.31407 | 849 ft | 117 kts | 122° |
| 2026-04-24 12:30 | 32.85697 | 35.31989 | 984 ft | 112 kts | 107° |
| 2026-04-24 12:31 | 32.85505 | 35.32837 | 1312 ft | 104 kts | 104° |
| 2026-04-24 12:31 | 32.85683 | 35.33957 | 1380 ft | 124 kts | 44° |
| 2026-04-24 12:31 | 32.86496 | 35.34223 | 1334 ft | 122 kts | 347° |
| 2026-04-24 12:31 | 32.87076 | 35.33588 | 1371 ft | 121 kts | 285° |
| 2026-04-24 12:32 | 32.86829 | 35.32652 | 1231 ft | 128 kts | 220° |
| 2026-04-24 12:32 | 32.86272 | 35.32475 | 1198 ft | 127 kts | 171° |
| 2026-04-24 12:32 | 32.85862 | 35.33247 | 1356 ft | 115 kts | 96° |
| 2026-04-24 12:32 | 32.85793 | 35.34162 | 1557 ft | 112 kts | 94° |
| 2026-04-24 12:33 | 32.85746 | 35.35097 | 1743 ft | 110 kts | 94° |
| 2026-04-24 12:33 | 32.85692 | 35.36099 | 1464 ft | 132 kts | 97° |
| 2026-04-24 12:33 | 32.85754 | 35.37183 | 1199 ft | 133 kts | 71° |
| 2026-04-24 12:33 | 32.85815 | 35.38117 | 1549 ft | 104 kts | 107° |
| 2026-04-24 12:34 | 32.86179 | 35.38419 | 1498 ft | 114 kts | 310° |
| 2026-04-24 12:34 | 32.86589 | 35.37676 | 1683 ft | 100 kts | 308° |
| 2026-04-24 12:34 | 32.86158 | 35.37227 | 1582 ft | 125 kts | 153° |
| 2026-04-24 12:34 | 32.85611 | 35.37933 | 1861 ft | 107 kts | 125° |
| 2026-04-24 12:35 | 32.85213 | 35.38658 | 2128 ft | 106 kts | 123° |
| 2026-04-24 12:35 | 32.85184 | 35.39470 | 1624 ft | 127 kts | 51° |
| 2026-04-24 12:35 | 32.85477 | 35.40262 | 1490 ft | 98 kts | 77° |
| 2026-04-24 12:35 | 32.85661 | 35.41073 | 1422 ft | 105 kts | 76° |
| 2026-04-24 12:36 | 32.85828 | 35.41915 | 1532 ft | 105 kts | 77° |
| 2026-04-24 12:36 | 32.85990 | 35.42771 | 1612 ft | 108 kts | 76° |
| 2026-04-24 12:36 | 32.86160 | 35.43662 | 1641 ft | 112 kts | 77° |
| 2026-04-24 12:36 | 32.86324 | 35.44549 | 1705 ft | 110 kts | 78° |
| 2026-04-24 12:37 | 32.86487 | 35.45439 | 1782 ft | 110 kts | 76° |
| 2026-04-24 12:37 | 32.86654 | 35.46312 | 1832 ft | 110 kts | 77° |
| 2026-04-24 12:37 | 32.86829 | 35.47215 | 1798 ft | 118 kts | 75° |
| 2026-04-24 12:37 | 32.87159 | 35.48037 | 1748 ft | 113 kts | 19° |
| 2026-04-24 12:38 | 32.87924 | 35.48106 | 1858 ft | 112 kts | 358° |
| 2026-04-24 12:38 | 32.88506 | 35.47613 | 1763 ft | 122 kts | 282° |
| 2026-04-24 12:38 | 32.88205 | 35.46680 | 1487 ft | 127 kts | 220° |
| 2026-04-24 12:39 | 32.88165 | 35.48011 | 1266 ft | 118 kts | 33° |
| 2026-04-24 12:39 | 32.88001 | 35.48725 | 1019 ft | 130 kts | 165° |
| 2026-04-24 12:39 | 32.87271 | 35.49306 | 888 ft | 129 kts | 120° |
| 2026-04-24 12:40 | 32.87143 | 35.50293 | 967 ft | 125 kts | 74° |
| 2026-04-24 12:40 | 32.87060 | 35.51192 | 1132 ft | 115 kts | 120° |
| 2026-04-24 12:40 | 32.86695 | 35.52043 | 1208 ft | 120 kts | 95° |
| 2026-04-24 12:40 | 32.87020 | 35.52970 | 1153 ft | 123 kts | 54° |
| 2026-04-24 12:41 | 32.87591 | 35.53612 | 1338 ft | 115 kts | 33° |
| 2026-04-24 12:41 | 32.88260 | 35.54109 | 1410 ft | 110 kts | 26° |
| 2026-04-24 12:41 | 32.88953 | 35.54492 | 1451 ft | 113 kts | 13° |
| 2026-04-24 12:41 | 32.89756 | 35.54392 | 1371 ft | 120 kts | 355° |
| 2026-04-24 12:42 | 32.90507 | 35.54510 | 1615 ft | 111 kts | 353° |
| 2026-04-24 12:42 | 32.91242 | 35.54316 | 1903 ft | 102 kts | 345° |
| 2026-04-24 12:42 | 32.91913 | 35.54383 | 2121 ft | 108 kts | 43° |
| 2026-04-24 12:42 | 32.92420 | 35.55066 | 2300 ft | 109 kts | 51° |
| 2026-04-24 12:43 | 32.92931 | 35.55779 | 2356 ft | 119 kts | 36° |
| 2026-04-24 12:43 | 32.93686 | 35.56164 | 2435 ft | 118 kts | 22° |
| 2026-04-24 12:43 | 32.94443 | 35.56552 | 2521 ft | 118 kts | 21° |
| 2026-04-24 12:43 | 32.95217 | 35.56873 | 2657 ft | 114 kts | 18° |
| 2026-04-24 12:44 | 32.95979 | 35.57195 | 2640 ft | 120 kts | 18° |
| 2026-04-24 12:44 | 32.96289 | 35.57828 | 2090 ft | 113 kts | 133° |
| 2026-04-24 12:44 | 32.96231 | 35.58448 | 1872 ft | 86 kts | 13° |
| 2026-04-24 12:44 | 32.96681 | 35.58160 | 1445 ft | 68 kts | 329° |
| 2026-04-24 12:45 | 32.97067 | 35.57895 | 1160 ft | 61 kts | 329° |
| 2026-04-24 12:45 | 32.97403 | 35.57661 | 1026 ft | 56 kts | 329° |
| 2026-04-24 12:45 | 32.97750 | 35.57423 | 918 ft | 53 kts | 330° |
| 2026-04-24 12:45 | 32.98020 | 35.57240 | 888 ft | 35 kts | 329° |
| 2026-04-24 12:46 | 32.98203 | 35.57125 | 888 ft | 26 kts | 333° |
| 2026-04-24 12:46 | 32.98346 | 35.57030 | 885 ft | 18 kts | 329° |
| 2026-04-24 12:46 | 32.98325 | 35.57024 | 885 ft | 15 kts | 148° |
| 2026-04-24 12:46 | 32.98225 | 35.57092 | 887 ft | 17 kts | 151° |
| 2026-04-24 12:47 | 32.98121 | 35.57170 | 889 ft | 18 kts | 150° |
| 2026-04-24 12:47 | 32.98012 | 35.57242 | 888 ft | 18 kts | 150° |
| 2026-04-24 12:47 | 32.97901 | 35.57321 | 888 ft | 19 kts | 150° |
| 2026-04-24 12:47 | 32.97812 | 35.57341 | 885 ft | 14 kts | 241° |
| 2026-04-24 12:48 | 32.97820 | 35.57298 | 886 ft | 6 kts | 347° |
| 2026-04-24 12:48 | 32.97823 | 35.57313 | 886 ft | 0 kts | 128° |
| 2026-04-24 12:51 | 32.97806 | 35.57349 | 885 ft | 18 kts | 79° |
| 2026-04-24 12:51 | 32.97922 | 35.57308 | 888 ft | 24 kts | 331° |
| 2026-04-24 12:51 | 32.98312 | 35.57032 | 896 ft | 94 kts | 329° |
| 2026-04-24 12:52 | 32.98935 | 35.56654 | 1117 ft | 96 kts | 353° |
| 2026-04-24 12:52 | 32.99399 | 35.57122 | 1453 ft | 98 kts | 101° |
| 2026-04-24 12:52 | 32.98811 | 35.57619 | 1553 ft | 113 kts | 155° |
| 2026-04-24 12:52 | 32.98100 | 35.57807 | 1831 ft | 102 kts | 202° |
| 2026-04-24 12:53 | 32.97411 | 35.57440 | 1914 ft | 114 kts | 199° |
| 2026-04-24 12:53 | 32.96618 | 35.57198 | 1820 ft | 121 kts | 192° |
| 2026-04-24 12:53 | 32.95832 | 35.57045 | 1945 ft | 108 kts | 189° |
| 2026-04-24 12:53 | 32.95044 | 35.56890 | 1817 ft | 119 kts | 201° |
| 2026-04-24 12:54 | 32.94439 | 35.56277 | 1835 ft | 115 kts | 229° |
| 2026-04-24 12:54 | 32.93878 | 35.55609 | 1797 ft | 118 kts | 214° |
| 2026-04-24 12:54 | 32.93160 | 35.55170 | 1796 ft | 115 kts | 204° |
| 2026-04-24 12:54 | 32.92439 | 35.54836 | 1857 ft | 112 kts | 194° |
| 2026-04-24 12:55 | 32.91641 | 35.54964 | 1696 ft | 121 kts | 161° |
| 2026-04-24 12:55 | 32.90863 | 35.55286 | 1774 ft | 113 kts | 161° |
| 2026-04-24 12:55 | 32.90094 | 35.55604 | 1377 ft | 115 kts | 161° |
| 2026-04-24 12:55 | 32.89381 | 35.55962 | 994 ft | 111 kts | 161° |
| 2026-04-24 12:56 | 32.88710 | 35.56278 | 762 ft | 95 kts | 154° |
| 2026-04-24 12:56 | 32.88095 | 35.56655 | 730 ft | 103 kts | 151° |
| 2026-04-24 12:56 | 32.87457 | 35.57063 | 297 ft | 103 kts | 153° |
| 2026-04-24 12:56 | 32.86811 | 35.57349 | 40 ft | 98 kts | 158° |
| 2026-04-24 12:57 | 32.86162 | 35.57706 | -34 ft | 105 kts | 157° |
| 2026-04-24 12:57 | 32.85523 | 35.58072 | 118 ft | 102 kts | 158° |
| 2026-04-24 12:57 | 32.84874 | 35.57829 | -97 ft | 122 kts | 236° |
| 2026-04-24 12:57 | 32.84463 | 35.56985 | 0 ft | 103 kts | 243° |
| 2026-04-24 12:58 | 32.84162 | 35.56265 | 137 ft | 99 kts | 244° |
| 2026-04-24 12:58 | 32.83804 | 35.55562 | 203 ft | 99 kts | 226° |
| 2026-04-24 12:58 | 32.83281 | 35.55051 | 316 ft | 97 kts | 217° |
| 2026-04-24 12:58 | 32.82728 | 35.54570 | 376 ft | 102 kts | 216° |
| 2026-04-24 12:59 | 32.82077 | 35.54522 | 495 ft | 98 kts | 158° |
| 2026-04-24 12:59 | 32.81466 | 35.54893 | 593 ft | 98 kts | 150° |
| 2026-04-24 12:59 | 32.81077 | 35.55468 | 725 ft | 96 kts | 82° |
| 2026-04-24 12:59 | 32.81174 | 35.56267 | 801 ft | 103 kts | 79° |
| 2026-04-24 13:00 | 32.81033 | 35.57054 | 833 ft | 104 kts | 147° |
| 2026-04-24 13:00 | 32.80394 | 35.57024 | 944 ft | 98 kts | 205° |
| 2026-04-24 13:00 | 32.79743 | 35.56651 | 890 ft | 105 kts | 208° |
| 2026-04-24 13:00 | 32.79095 | 35.56291 | 883 ft | 104 kts | 207° |
| 2026-04-24 13:01 | 32.78630 | 35.56601 | 780 ft | 116 kts | 81° |
| 2026-04-24 13:01 | 32.78775 | 35.57540 | 778 ft | 113 kts | 79° |
| 2026-04-24 13:01 | 32.78938 | 35.58426 | 891 ft | 108 kts | 76° |
| 2026-04-24 13:01 | 32.79111 | 35.59305 | 952 ft | 110 kts | 76° |
| 2026-04-24 13:02 | 32.79287 | 35.60191 | 1005 ft | 110 kts | 76° |
| 2026-04-24 13:02 | 32.79462 | 35.61076 | 1051 ft | 110 kts | 76° |
| 2026-04-24 13:02 | 32.79720 | 35.61924 | 1060 ft | 112 kts | 51° |
| 2026-04-24 13:02 | 32.80411 | 35.62389 | 906 ft | 117 kts | 10° |
| 2026-04-24 13:03 | 32.81175 | 35.62530 | 1067 ft | 105 kts | 6° |
| 2026-04-24 13:03 | 32.81890 | 35.62617 | 1212 ft | 104 kts | 352° |
| 2026-04-24 13:03 | 32.82508 | 35.62070 | 856 ft | 125 kts | 296° |
| 2026-04-24 13:03 | 32.82687 | 35.61114 | 821 ft | 113 kts | 276° |
| 2026-04-24 13:04 | 32.82723 | 35.60234 | 979 ft | 101 kts | 271° |
| 2026-04-24 13:04 | 32.82735 | 35.59412 | 1193 ft | 99 kts | 271° |
| 2026-04-24 13:04 | 32.82744 | 35.58601 | 1484 ft | 98 kts | 271° |
| 2026-04-24 13:04 | 32.82754 | 35.57792 | 1805 ft | 93 kts | 270° |
| 2026-04-24 13:05 | 32.83074 | 35.57215 | 1936 ft | 91 kts | 320° |
| 2026-04-24 13:05 | 32.83618 | 35.56765 | 1928 ft | 98 kts | 323° |
| 2026-04-24 13:05 | 32.84219 | 35.56387 | 1961 ft | 95 kts | 340° |
| 2026-04-24 13:05 | 32.84850 | 35.56205 | 1895 ft | 91 kts | 346° |
| 2026-04-24 13:06 | 32.85489 | 35.56084 | 1752 ft | 94 kts | 352° |
| 2026-04-24 13:06 | 32.86156 | 35.55970 | 1586 ft | 97 kts | 349° |
| 2026-04-24 13:06 | 32.86829 | 35.55922 | 1466 ft | 95 kts | 357° |
| 2026-04-24 13:06 | 32.87447 | 35.55932 | 1508 ft | 85 kts | 359° |
| 2026-04-24 13:07 | 32.88020 | 35.55956 | 1565 ft | 80 kts | 359° |
| 2026-04-24 13:07 | 32.88565 | 35.56056 | 1615 ft | 80 kts | 9° |
| 2026-04-24 13:07 | 32.89129 | 35.56174 | 1607 ft | 84 kts | 8° |
| 2026-04-24 13:07 | 32.89713 | 35.56290 | 1581 ft | 86 kts | 7° |
| 2026-04-24 13:08 | 32.90335 | 35.56388 | 1314 ft | 102 kts | 4° |
| 2026-04-24 13:08 | 32.90998 | 35.56502 | 1371 ft | 79 kts | 4° |
| 2026-04-24 13:08 | 32.91583 | 35.56633 | 1408 ft | 91 kts | 10° |
| 2026-04-24 13:09 | 32.92825 | 35.56958 | 1871 ft | 81 kts | 10° |
| 2026-04-24 13:09 | 32.93422 | 35.57097 | 1843 ft | 97 kts | 8° |
| 2026-04-24 13:09 | 32.94026 | 35.57333 | 2107 ft | 82 kts | 19° |
| 2026-04-24 13:09 | 32.94589 | 35.57608 | 2057 ft | 93 kts | 26° |
| 2026-04-24 13:10 | 32.95116 | 35.57920 | 1989 ft | 79 kts | 20° |
| 2026-04-24 13:10 | 32.95596 | 35.58161 | 1892 ft | 66 kts | 17° |
| 2026-04-24 13:10 | 32.96076 | 35.58275 | 1697 ft | 79 kts | 1° |
| 2026-04-24 13:10 | 32.96594 | 35.58221 | 1489 ft | 67 kts | 336° |
| 2026-04-24 13:11 | 32.96952 | 35.57980 | 1276 ft | 55 kts | 327° |
| 2026-04-24 13:11 | 32.97317 | 35.57728 | 1129 ft | 58 kts | 328° |
| 2026-04-24 13:11 | 32.97653 | 35.57490 | 975 ft | 58 kts | 329° |
| 2026-04-24 13:11 | 32.97953 | 35.57284 | 892 ft | 42 kts | 330° |
| 2026-04-24 13:12 | 32.98148 | 35.57151 | 889 ft | 12 kts | 329° |
| 2026-04-24 13:12 | 32.98221 | 35.57096 | 887 ft | 7 kts | 42° |
| 2026-04-24 13:12 | 32.98114 | 35.57174 | 889 ft | 37 kts | 149° |
| 2026-04-24 13:12 | 32.97908 | 35.57313 | 888 ft | 31 kts | 152° |
| 2026-04-24 13:13 | 32.97812 | 35.57314 | 885 ft | 11 kts | 258° |
| 2026-04-24 13:13 | 32.97826 | 35.57302 | 886 ft | 3 kts | 88° |
| 2026-04-24 13:13 | 32.97822 | 35.57314 | 886 ft | 0 kts | 117° |
| 2026-04-24 13:16 | 32.97829 | 35.57368 | 886 ft | 11 kts | 26° |
| 2026-04-24 13:16 | 32.97849 | 35.57359 | 887 ft | 0 kts | 333° |
| 2026-04-24 13:17 | 32.97882 | 35.57335 | 888 ft | 32 kts | 328° |
| 2026-04-24 13:17 | 32.98288 | 35.57045 | 895 ft | 93 kts | 327° |
| 2026-04-24 13:17 | 32.98879 | 35.56708 | 1116 ft | 98 kts | 347° |
| 2026-04-24 13:18 | 32.99371 | 35.57091 | 1406 ft | 95 kts | 102° |
| 2026-04-24 13:18 | 32.98857 | 35.57667 | 1414 ft | 115 kts | 152° |
| 2026-04-24 13:18 | 32.98152 | 35.58086 | 1367 ft | 105 kts | 157° |
| 2026-04-24 13:18 | 32.97528 | 35.58393 | 1320 ft | 86 kts | 185° |
| 2026-04-24 13:19 | 32.97418 | 35.57835 | 1064 ft | 90 kts | 290° |
| 2026-04-24 13:19 | 32.97864 | 35.57356 | 920 ft | 71 kts | 330° |
| 2026-04-24 13:19 | 32.98181 | 35.57141 | 889 ft | 43 kts | 329° |
| 2026-04-24 13:19 | 32.98603 | 35.56808 | 989 ft | 85 kts | 307° |
| 2026-04-24 13:20 | 32.98298 | 35.56374 | 1298 ft | 95 kts | 189° |
| 2026-04-24 13:20 | 32.97663 | 35.56252 | 1650 ft | 95 kts | 194° |
| 2026-04-24 13:20 | 32.96961 | 35.56050 | 1767 ft | 110 kts | 195° |
| 2026-04-24 13:20 | 32.96212 | 35.55832 | 1963 ft | 107 kts | 196° |
| 2026-04-24 13:21 | 32.95498 | 35.55664 | 2137 ft | 106 kts | 191° |
| 2026-04-24 13:21 | 32.94784 | 35.55535 | 2148 ft | 104 kts | 192° |
| 2026-04-24 13:21 | 32.94038 | 35.55369 | 1976 ft | 112 kts | 193° |
| 2026-04-24 13:21 | 32.93276 | 35.55199 | 1861 ft | 110 kts | 193° |
| 2026-04-24 13:22 | 32.92524 | 35.55035 | 1772 ft | 109 kts | 192° |
| 2026-04-24 13:22 | 32.91776 | 35.54866 | 1645 ft | 110 kts | 193° |
| 2026-04-24 13:22 | 32.91014 | 35.54693 | 1508 ft | 111 kts | 193° |
| 2026-04-24 13:22 | 32.90265 | 35.54526 | 1442 ft | 108 kts | 192° |
| 2026-04-24 13:23 | 32.89528 | 35.54359 | 1380 ft | 105 kts | 193° |
| 2026-04-24 13:23 | 32.88827 | 35.54183 | 1243 ft | 100 kts | 196° |
| 2026-04-24 13:23 | 32.88188 | 35.53932 | 1173 ft | 97 kts | 219° |
| 2026-04-24 13:23 | 32.87787 | 35.53232 | 1182 ft | 104 kts | 246° |
| 2026-04-24 13:24 | 32.87718 | 35.52399 | 1230 ft | 100 kts | 271° |
| 2026-04-24 13:24 | 32.87761 | 35.51562 | 1200 ft | 100 kts | 276° |
| 2026-04-24 13:24 | 32.87827 | 35.50747 | 1152 ft | 101 kts | 273° |
| 2026-04-24 13:24 | 32.87840 | 35.49916 | 1128 ft | 98 kts | 267° |
| 2026-04-24 13:25 | 32.87844 | 35.49107 | 1229 ft | 99 kts | 270° |
| 2026-04-24 13:25 | 32.87841 | 35.48270 | 1290 ft | 102 kts | 270° |
| 2026-04-24 13:25 | 32.87837 | 35.47413 | 1318 ft | 105 kts | 270° |
| 2026-04-24 13:25 | 32.87835 | 35.46546 | 1353 ft | 104 kts | 270° |
| 2026-04-24 13:26 | 32.87831 | 35.45683 | 1393 ft | 104 kts | 270° |
| 2026-04-24 13:26 | 32.87831 | 35.44819 | 1416 ft | 105 kts | 270° |
| 2026-04-24 13:26 | 32.87831 | 35.43953 | 1467 ft | 104 kts | 270° |
| 2026-04-24 13:26 | 32.87831 | 35.43090 | 1507 ft | 104 kts | 270° |
| 2026-04-24 13:27 | 32.87833 | 35.42228 | 1532 ft | 105 kts | 269° |
| 2026-04-24 13:27 | 32.87836 | 35.41364 | 1567 ft | 104 kts | 270° |
| 2026-04-24 13:27 | 32.87839 | 35.40499 | 1606 ft | 105 kts | 270° |
| 2026-04-24 13:27 | 32.87840 | 35.39632 | 1642 ft | 105 kts | 270° |
| 2026-04-24 13:28 | 32.87840 | 35.38764 | 1682 ft | 105 kts | 270° |
| 2026-04-24 13:28 | 32.87843 | 35.37896 | 1710 ft | 104 kts | 270° |
| 2026-04-24 13:28 | 32.87845 | 35.37033 | 1700 ft | 105 kts | 270° |
| 2026-04-24 13:28 | 32.87846 | 35.36177 | 1691 ft | 100 kts | 270° |
| 2026-04-24 13:29 | 32.87838 | 35.35373 | 1648 ft | 99 kts | 268° |
| 2026-04-24 13:29 | 32.87816 | 35.34553 | 1590 ft | 99 kts | 269° |
| 2026-04-24 13:29 | 32.87798 | 35.33682 | 1341 ft | 112 kts | 262° |
| 2026-04-24 13:29 | 32.87685 | 35.32741 | 871 ft | 125 kts | 271° |
| 2026-04-24 13:30 | 32.87179 | 35.31991 | 703 ft | 112 kts | 229° |
| 2026-04-24 13:30 | 32.86962 | 35.31174 | 714 ft | 112 kts | 280° |
| 2026-04-24 13:30 | 32.86759 | 35.30315 | 927 ft | 104 kts | 265° |
| 2026-04-24 13:30 | 32.86797 | 35.29427 | 1009 ft | 104 kts | 272° |
| 2026-04-24 13:31 | 32.86789 | 35.28620 | 1039 ft | 88 kts | 255° |
| 2026-04-24 13:31 | 32.86569 | 35.27960 | 1112 ft | 95 kts | 252° |
| 2026-04-24 13:31 | 32.86333 | 35.27196 | 1189 ft | 100 kts | 250° |
| 2026-04-24 13:31 | 32.86094 | 35.26395 | 1257 ft | 106 kts | 251° |
| 2026-04-24 13:32 | 32.85853 | 35.25589 | 1389 ft | 102 kts | 250° |
| 2026-04-24 13:32 | 32.85607 | 35.24780 | 1465 ft | 106 kts | 251° |
| 2026-04-24 13:32 | 32.85356 | 35.23946 | 1481 ft | 110 kts | 251° |
| 2026-04-24 13:32 | 32.85105 | 35.23090 | 1535 ft | 108 kts | 251° |
| 2026-04-24 13:33 | 32.84853 | 35.22241 | 1577 ft | 108 kts | 251° |
| 2026-04-24 13:33 | 32.84611 | 35.21415 | 1706 ft | 104 kts | 251° |
| 2026-04-24 13:33 | 32.84351 | 35.20551 | 1552 ft | 112 kts | 251° |
| 2026-04-24 13:33 | 32.84096 | 35.19706 | 1586 ft | 105 kts | 251° |
| 2026-04-24 13:34 | 32.83838 | 35.18873 | 1523 ft | 108 kts | 251° |
| 2026-04-24 13:34 | 32.83574 | 35.18022 | 1413 ft | 110 kts | 249° |
| 2026-04-24 13:34 | 32.83324 | 35.17196 | 1463 ft | 103 kts | 251° |
| 2026-04-24 13:34 | 32.83071 | 35.16396 | 1397 ft | 104 kts | 251° |
| 2026-04-24 13:35 | 32.82823 | 35.15581 | 1241 ft | 107 kts | 251° |
| 2026-04-24 13:35 | 32.82572 | 35.14747 | 1176 ft | 106 kts | 251° |
| 2026-04-24 13:35 | 32.82311 | 35.13892 | 964 ft | 110 kts | 250° |
| 2026-04-24 13:35 | 32.82046 | 35.13093 | 916 ft | 103 kts | 248° |
| 2026-04-24 13:36 | 32.81731 | 35.12295 | 942 ft | 108 kts | 245° |
| 2026-04-24 13:36 | 32.81428 | 35.11509 | 1194 ft | 102 kts | 246° |
| 2026-04-24 13:36 | 32.81134 | 35.10743 | 1240 ft | 102 kts | 246° |
| 2026-04-24 13:36 | 32.80801 | 35.09969 | 1252 ft | 108 kts | 244° |
| 2026-04-24 13:37 | 32.80397 | 35.09182 | 1222 ft | 114 kts | 233° |
| 2026-04-24 13:37 | 32.79896 | 35.08473 | 1192 ft | 112 kts | 224° |
| 2026-04-24 13:37 | 32.79305 | 35.07849 | 1019 ft | 117 kts | 224° |
| 2026-04-24 13:37 | 32.78751 | 35.07150 | 877 ft | 115 kts | 227° |
| 2026-04-24 13:38 | 32.78271 | 35.06511 | 657 ft | 93 kts | 234° |
| 2026-04-24 13:38 | 32.78248 | 35.05881 | 468 ft | 83 kts | 303° |
| 2026-04-24 13:38 | 32.78652 | 35.05351 | 448 ft | 86 kts | 334° |
| 2026-04-24 13:38 | 32.79144 | 35.05182 | 532 ft | 66 kts | 345° |
| 2026-04-24 13:39 | 32.79564 | 35.05005 | 330 ft | 60 kts | 336° |
| 2026-04-24 13:39 | 32.79962 | 35.04822 | 175 ft | 65 kts | 339° |
| 2026-04-24 13:39 | 32.80358 | 35.04656 | 63 ft | 57 kts | 339° |
| 2026-04-24 13:39 | 32.80714 | 35.04501 | 27 ft | 52 kts | 340° |
| 2026-04-24 13:40 | 32.81013 | 35.04373 | 21 ft | 44 kts | 342° |
| 2026-04-24 13:40 | 32.81168 | 35.04282 | 22 ft | 11 kts | 269° |
| 2026-04-24 13:40 | 32.81134 | 35.04216 | 20 ft | 10 kts | 150° |
| 2026-04-24 13:40 | 32.81136 | 35.04229 | 20 ft | 0 kts | 335° |